Time;durP1;ratioP1;P1;durP2;ratioP2;P2;SDS_P1;SDS_P2;PMS_P1;PMS_P2;Temp;Humidity;BMP_temperature;BMP_pressure;BME280_temperature;BME280_humidity;BME280_pressure;Samples;Min_cycle;Max_cycle;Signal;HPM_P1;HPM_P2
2022/05/02 00:00:09;;;;;;;;;;;;;;;;;;1027963;28;3661;-55
2022/05/02 00:00:59;;;;;;;;;;;;;;;;;;1026212;28;3630;-52
2022/05/02 00:01:29;;;;;;;;;;;;;;;;;;1031076;28;3616;-53
2022/05/02 00:02:01;;;;;;;;;;;;;;;;;;1027906;28;3754;-53
2022/05/02 00:02:31;;;;;;;;;;;;;;;;;;1029777;28;3911;-51
2022/05/02 00:03:01;;;;;;;;;;;;;;;;;;1031800;28;4084;-54
2022/05/02 00:03:31;;;;;;;;;;;;;;;;;;1032487;28;3662;-53
2022/05/02 00:04:02;;;;;;;;;;;;;;;;;;1035254;28;3487;-51
2022/05/02 00:04:32;;;;;;;;;;;;;;;;;;1035896;28;4697;-52
2022/05/02 00:05:03;;;;;;;;;;;;;;;;;;1035477;28;4773;-52
2022/05/02 00:05:33;;;;;;;;;;;;;;;;;;1033771;28;4063;-52
2022/05/02 00:06:04;;;;;;;;;;;;;;;;;;1031728;28;3958;-53
2022/05/02 00:06:34;;;;;;;;;;;;;;;;;;1031945;28;3581;-52
2022/05/02 00:07:04;;;;;;;;;;;;;;;;;;1030851;28;3520;-51
2022/05/02 00:07:35;;;;;;;;;;;;;;;;;;1030746;28;5399;-54
2022/05/02 00:08:06;;;;;;;;;;;;;;;;;;1035508;28;3483;-49
2022/05/02 00:08:36;;;;;;;;;;;;;;;;;;1035302;28;3526;-52
2022/05/02 00:09:06;;;;;;;;;;;;;;;;;;1036427;28;3713;-49
2022/05/02 00:09:37;;;;;;;;;;;;;;;;;;1035676;28;3701;-54
2022/05/02 00:10:08;;;;;;;;;;;;;;;;;;1031256;28;3823;-53
2022/05/02 00:10:38;;;;;;;;;;;;;;;;;;1031919;28;3534;-53
2022/05/02 00:11:09;;;;;;;;;;;;;;;;;;1030263;28;3489;-54
2022/05/02 00:11:39;;;;;;;;;;;;;;;;;;1026887;28;3749;-51
2022/05/02 00:12:10;;;;;;;;;;;;;;;;;;1030664;28;3578;-53
2022/05/02 00:12:40;;;;;;;;;;;;;;;;;;1031601;28;3872;-53
2022/05/02 00:13:10;;;;;;;;;;;;;;;;;;1030179;28;3634;-51
2022/05/02 00:13:40;;;;;;;;;;;;;;;;;;1035344;28;3743;-55
2022/05/02 00:14:11;;;;;;;;;;;;;;;;;;1035810;28;3511;-52
2022/05/02 00:14:41;;;;;;;;;;;;;;;;;;1035657;28;3539;-52
2022/05/02 00:15:11;;;;;;;;;;;;;;;;;;1036685;28;3583;-50
2022/05/02 00:15:42;;;;;;;;;;;;;;;;;;1035856;28;3516;-51
2022/05/02 00:16:12;;;;;;;;;;;;;;;;;;1031876;28;3962;-54
2022/05/02 00:16:42;;;;;;;;;;;;;;;;;;1030828;28;3601;-50
2022/05/02 00:17:12;;;;;;;;;;;;;;;;;;1028168;28;3722;-52
2022/05/02 00:17:58;;;;;;;;;;;;;;;;;;1027383;28;3934;-50
2022/05/02 00:18:28;;;;;;;;;;;;;;;;;;1032716;28;3701;-54
2022/05/02 00:18:58;;;;;;;;;;;;;;;;;;1034119;28;3577;-55
2022/05/02 00:19:29;;;;;;;;;;;;;;;;;;1034723;28;4198;-54
2022/05/02 00:19:59;;;;;;;;;;;;;;;;;;1035241;28;3581;-52
2022/05/02 00:20:30;;;;;;;;;;;;;;;;;;1035987;28;3669;-51
2022/05/02 00:21:01;;;;;;;;;;;;;;;;;;1034443;28;4073;-53
2022/05/02 00:21:31;;;;;;;;;;;;;;;;;;1035501;28;3506;-54
2022/05/02 00:22:01;;;;;;;;;;;;;;;;;;1034646;28;4900;-53
2022/05/02 00:22:31;;;;;;;;;;;;;;;;;;1034934;28;4176;-50
2022/05/02 00:23:04;;;;;;;;;;;;;;;;;;1031340;28;3707;-54
2022/05/02 00:23:34;;;;;;;;;;;;;;;;;;1031704;28;3564;-54
2022/05/02 00:24:04;;;;;;;;;;;;;;;;;;1030922;28;3616;-52
2022/05/02 00:24:37;;;;;;;;;;;;;;;;;;1031406;28;5680;-52
2022/05/02 00:25:20;;;;;;;;;;;;;;;;;;1037064;28;3876;-54
2022/05/02 00:25:57;;;;;;;;;;;;;;;;;;1034334;28;3761;-51
2022/05/02 00:26:28;;;;;;;;;;;;;;;;;;1034709;28;3581;-54
2022/05/02 00:26:58;;;;;;;;;;;;;;;;;;1035463;28;3869;-51
2022/05/02 00:27:28;;;;;;;;;;;;;;;;;;1035974;28;3543;-52
2022/05/02 00:27:59;;;;;;;;;;;;;;;;;;1039768;28;4060;-49
2022/05/02 00:28:29;;;;;;;;;;;;;;;;;;1038724;28;3617;-52
2022/05/02 00:28:59;;;;;;;;;;;;;;;;;;1039310;28;3632;-51
2022/05/02 00:29:30;;;;;;;;;;;;;;;;;;1038992;28;3627;-54
2022/05/02 00:30:00;;;;;;;;;;;;;;;;;;1039702;28;3589;-50
2022/05/02 00:30:30;;;;;;;;;;;;;;;;;;1035102;28;4184;-51
2022/05/02 00:31:01;;;;;;;;;;;;;;;;;;1037561;28;3595;-54
2022/05/02 00:31:31;;;;;;;;;;;;;;;;;;1036943;28;3539;-52
2022/05/02 00:32:02;;;;;;;;;;;;;;;;;;1036559;28;3922;-52
2022/05/02 00:32:32;;;;;;;;;;;;;;;;;;1038844;28;3651;-52
2022/05/02 00:33:03;;;;;;;;;;;;;;;;;;1038398;28;3904;-53
2022/05/02 00:33:40;;;;;;;;;;;;;;;;;;1035892;28;3986;-53
2022/05/02 00:34:11;;;;;;;;;;;;;;;;;;1036479;28;3593;-50
2022/05/02 00:34:41;;;;;;;;;;;;;;;;;;1036935;28;3591;-53
2022/05/02 00:35:12;;;;;;;;;;;;;;;;;;1040462;28;3918;-51
2022/05/02 00:35:42;;;;;;;;;;;;;;;;;;1033751;28;4554;-53
2022/05/02 00:36:13;;;;;;;;;;;;;;;;;;1033034;28;3753;-53
2022/05/02 00:36:43;;;;;;;;;;;;;;;;;;1033906;28;3612;-50
2022/05/02 00:37:15;;;;;;;;;;;;;;;;;;1033219;28;3549;-53
2022/05/02 00:37:46;;;;;;;;;;;;;;;;;;1033950;28;3507;-51
2022/05/02 00:38:16;;;;;;;;;;;;;;;;;;1034488;28;4779;-50
2022/05/02 00:38:47;;;;;;;;;;;;;;;;;;1034843;28;3841;-51
2022/05/02 00:39:17;;;;;;;;;;;;;;;;;;1038766;28;3459;-54
2022/05/02 00:39:47;;;;;;;;;;;;;;;;;;1040030;28;3638;-52
2022/05/02 00:40:18;;;;;;;;;;;;;;;;;;1034218;28;4340;-52
2022/05/02 00:40:48;;;;;;;;;;;;;;;;;;1036269;28;3920;-50
2022/05/02 00:41:19;;;;;;;;;;;;;;;;;;1036782;28;4465;-49
2022/05/02 00:41:49;;;;;;;;;;;;;;;;;;1035873;28;3510;-51
2022/05/02 00:42:20;;;;;;;;;;;;;;;;;;1034765;28;3546;-51
2022/05/02 00:42:50;;;;;;;;;;;;;;;;;;1035232;28;3851;-51
2022/05/02 00:43:20;;;;;;;;;;;;;;;;;;1034267;28;3853;-53
2022/05/02 00:43:51;;;;;;;;;;;;;;;;;;1035794;28;4310;-52
2022/05/02 00:44:21;;;;;;;;;;;;;;;;;;1039198;28;3676;-50
2022/05/02 00:44:51;;;;;;;;;;;;;;;;;;1039851;28;3602;-53
2022/05/02 00:45:21;;;;;;;;;;;;;;;;;;1039011;28;3540;-53
2022/05/02 00:45:52;;;;;;;;;;;;;;;;;;1039743;28;4366;-52
2022/05/02 00:46:23;;;;;;;;;;;;;;;;;;1036007;28;4085;-53
2022/05/02 00:46:54;;;;;;;;;;;;;;;;;;1032187;28;3566;-52
2022/05/02 00:47:24;;;;;;;;;;;;;;;;;;1033444;28;3921;-53
2022/05/02 00:47:56;;;;;;;;;;;;;;;;;;1035715;28;3523;-52
2022/05/02 00:48:26;;;;;;;;;;;;;;;;;;1040850;28;3971;-51
2022/05/02 00:48:56;;;;;;;;;;;;;;;;;;1035485;28;3614;-54
2022/05/02 00:49:27;;;;;;;;;;;;;;;;;;1036050;28;3413;-51
2022/05/02 00:49:57;;;;;;;;;;;;;;;;;;1035209;28;3588;-50
2022/05/02 00:50:31;;;;;;;;;;;;;;;;;;1036477;28;3625;-52
2022/05/02 00:51:01;;;;;;;;;;;;;;;;;;1038884;28;5365;-51
2022/05/02 00:51:32;;;;;;;;;;;;;;;;;;1039083;28;4092;-50
2022/05/02 00:52:02;;;;;;;;;;;;;;;;;;1038902;28;3658;-53
2022/05/02 00:52:32;;;;;;;;;;;;;;;;;;1039003;28;3604;-51
2022/05/02 00:53:04;;;;;;;;;;;;;;;;;;1039547;28;4252;-52
2022/05/02 00:53:34;;;;;;;;;;;;;;;;;;1039478;28;3642;-51
2022/05/02 00:54:04;;;;;;;;;;;;;;;;;;1039089;28;3856;-54
2022/05/02 00:54:37;;;;;;;;;;;;;;;;;;1038501;28;3762;-53
2022/05/02 00:55:08;;;;;;;;;;;;;;;;;;1039138;28;3509;-54
2022/05/02 00:55:39;;;;;;;;;;;;;;;;;;1040078;28;3611;-52
2022/05/02 00:56:09;;;;;;;;;;;;;;;;;;1040061;28;3646;-51
2022/05/02 00:56:40;;;;;;;;;;;;;;;;;;1038816;28;3749;-54
2022/05/02 00:57:12;;;;;;;;;;;;;;;;;;1039385;28;4386;-51
2022/05/02 00:57:43;;;;;;;;;;;;;;;;;;1039974;28;3648;-52
2022/05/02 00:58:14;;;;;;;;;;;;;;;;;;1040154;28;6783;-53
2022/05/02 00:58:44;;;;;;;;;;;;;;;;;;1038177;28;3418;-53
2022/05/02 00:59:15;;;;;;;;;;;;;;;;;;1037217;28;3635;-52
2022/05/02 00:59:45;;;;;;;;;;;;;;;;;;1036264;28;3735;-51
2022/05/02 01:00:16;;;;;;;;;;;;;;;;;;1037925;28;3566;-50
2022/05/02 01:00:46;;;;;;;;;;;;;;;;;;1036422;28;3569;-53
2022/05/02 01:01:17;;;;;;;;;;;;;;;;;;1039574;28;3468;-54
2022/05/02 01:01:47;;;;;;;;;;;;;;;;;;1040273;28;3599;-52
2022/05/02 01:02:17;;;;;;;;;;;;;;;;;;1039054;28;3547;-50
2022/05/02 01:02:48;;;;;;;;;;;;;;;;;;1039352;28;3431;-52
2022/05/02 01:03:18;;;;;;;;;;;;;;;;;;1039634;28;3785;-52
2022/05/02 01:03:52;;;;;;;;;;;;;;;;;;1031780;28;3569;-55
2022/05/02 01:04:22;;;;;;;;;;;;;;;;;;1030915;28;4267;-54
2022/05/02 01:04:52;;;;;;;;;;;;;;;;;;1031217;28;3750;-53
2022/05/02 01:05:23;;;;;;;;;;;;;;;;;;1029738;28;3773;-54
2022/05/02 01:07:32;;;;;;;;;;;;;;;;;;1040190;28;3515;-50
2022/05/02 01:08:04;;;;;;;;;;;;;;;;;;1040151;28;3511;-52
2022/05/02 01:08:35;;;;;;;;;;;;;;;;;;1040925;28;3495;-52
2022/05/02 01:09:05;;;;;;;;;;;;;;;;;;1039605;28;3760;-51
2022/05/02 01:09:38;;;;;;;;;;;;;;;;;;1040581;28;3606;-51
2022/05/02 01:10:08;;;;;;;;;;;;;;;;;;1039717;28;3759;-54
2022/05/02 01:10:39;;;;;;;;;;;;;;;;;;1039744;28;3553;-52
2022/05/02 01:11:09;;;;;;;;;;;;;;;;;;1040249;28;3585;-52
2022/05/02 01:11:39;;;;;;;;;;;;;;;;;;1040923;28;3602;-54
2022/05/02 01:12:14;;;;;;;;;;;;;;;;;;1035197;28;4328;-51
2022/05/02 01:12:46;;;;;;;;;;;;;;;;;;1034695;28;3585;-51
2022/05/02 01:13:37;;;;;;;;;;;;;;;;;;1033600;28;4058;-52
2022/05/02 01:14:08;;;;;;;;;;;;;;;;;;1039335;28;3403;-51
2022/05/02 01:14:39;;;;;;;;;;;;;;;;;;1038527;28;3828;-54
2022/05/02 01:15:09;;;;;;;;;;;;;;;;;;1039569;28;3574;-49
2022/05/02 01:15:39;;;;;;;;;;;;;;;;;;1038697;28;3721;-50
2022/05/02 01:16:09;;;;;;;;;;;;;;;;;;1041099;28;4058;-53
2022/05/02 01:16:40;;;;;;;;;;;;;;;;;;1038231;28;3826;-54
2022/05/02 01:17:10;;;;;;;;;;;;;;;;;;1040127;28;3960;-51
2022/05/02 01:17:41;;;;;;;;;;;;;;;;;;1035466;28;3557;-52
2022/05/02 01:18:11;;;;;;;;;;;;;;;;;;1035892;28;3519;-50
2022/05/02 01:18:42;;;;;;;;;;;;;;;;;;1032659;28;3957;-52
2022/05/02 01:19:13;;;;;;;;;;;;;;;;;;1031895;28;3815;-50
2022/05/02 01:19:43;;;;;;;;;;;;;;;;;;1034868;28;3791;-51
2022/05/02 01:20:14;;;;;;;;;;;;;;;;;;1035898;28;3889;-53
2022/05/02 01:20:45;;;;;;;;;;;;;;;;;;1035330;28;3964;-53
2022/05/02 01:21:19;;;;;;;;;;;;;;;;;;1035899;28;3776;-54
2022/05/02 01:21:49;;;;;;;;;;;;;;;;;;1036013;28;3785;-52
2022/05/02 01:22:20;;;;;;;;;;;;;;;;;;1037162;28;3754;-50
2022/05/02 01:22:51;;;;;;;;;;;;;;;;;;1035717;28;3560;-54
2022/05/02 01:23:21;;;;;;;;;;;;;;;;;;1036089;28;3822;-51
2022/05/02 01:23:52;;;;;;;;;;;;;;;;;;1035035;28;3597;-52
2022/05/02 01:24:30;;;;;;;;;;;;;;;;;;1033694;28;3448;-53
2022/05/02 01:25:01;;;;;;;;;;;;;;;;;;1039153;28;4156;-53
2022/05/02 01:25:44;;;;;;;;;;;;;;;;;;1038748;28;4267;-51
2022/05/02 01:26:21;;;;;;;;;;;;;;;;;;1036429;28;3760;-52
2022/05/02 01:26:52;;;;;;;;;;;;;;;;;;1032978;28;3503;-55
2022/05/02 01:27:22;;;;;;;;;;;;;;;;;;1032108;28;3484;-52
2022/05/02 01:27:53;;;;;;;;;;;;;;;;;;1032956;28;3985;-52
2022/05/02 01:28:23;;;;;;;;;;;;;;;;;;1032676;28;3739;-55
2022/05/02 01:28:54;;;;;;;;;;;;;;;;;;1034981;28;3705;-50
2022/05/02 01:29:24;;;;;;;;;;;;;;;;;;1036027;28;3998;-50
2022/05/02 01:30:02;;;;;;;;;;;;;;;;;;1036389;28;3555;-52
2022/05/02 01:30:32;;;;;;;;;;;;;;;;;;1036038;28;3773;-50
2022/05/02 01:31:02;;;;;;;;;;;;;;;;;;1036664;28;3595;-51
2022/05/02 01:31:33;;;;;;;;;;;;;;;;;;1036599;28;3555;-51
2022/05/02 01:32:06;;;;;;;;;;;;;;;;;;1030298;28;3585;-51
2022/05/02 01:32:36;;;;;;;;;;;;;;;;;;1031366;28;3646;-49
2022/05/02 01:33:09;;;;;;;;;;;;;;;;;;1031564;28;5123;-52
2022/05/02 01:33:40;;;;;;;;;;;;;;;;;;1029930;28;3516;-51
2022/05/02 01:34:10;;;;;;;;;;;;;;;;;;1031807;28;3605;-52
2022/05/02 01:34:41;;;;;;;;;;;;;;;;;;1032172;28;3796;-50
2022/05/02 01:35:11;;;;;;;;;;;;;;;;;;1031982;28;3860;-54
2022/05/02 01:35:41;;;;;;;;;;;;;;;;;;1035372;28;3589;-50
2022/05/02 01:36:12;;;;;;;;;;;;;;;;;;1035637;28;4054;-50
2022/05/02 01:36:44;;;;;;;;;;;;;;;;;;1036499;28;3927;-50
2022/05/02 01:37:14;;;;;;;;;;;;;;;;;;1035801;28;3570;-52
2022/05/02 01:37:45;;;;;;;;;;;;;;;;;;1036836;28;3629;-52
2022/05/02 01:38:15;;;;;;;;;;;;;;;;;;1036050;28;3742;-52
2022/05/02 01:38:46;;;;;;;;;;;;;;;;;;1034905;28;3530;-53
2022/05/02 01:39:16;;;;;;;;;;;;;;;;;;1031978;28;3632;-52
2022/05/02 01:39:47;;;;;;;;;;;;;;;;;;1032755;28;4091;-52
2022/05/02 01:40:17;;;;;;;;;;;;;;;;;;1032435;28;3527;-52
2022/05/02 01:40:48;;;;;;;;;;;;;;;;;;1030875;28;3380;-52
2022/05/02 01:41:18;;;;;;;;;;;;;;;;;;1037162;28;3962;-53
2022/05/02 01:41:49;;;;;;;;;;;;;;;;;;1034559;28;3969;-51
2022/05/02 01:42:19;;;;;;;;;;;;;;;;;;1036567;28;3604;-52
2022/05/02 01:42:49;;;;;;;;;;;;;;;;;;1037018;28;3764;-50
2022/05/02 01:43:19;;;;;;;;;;;;;;;;;;1035639;28;3654;-52
2022/05/02 01:43:50;;;;;;;;;;;;;;;;;;1036365;28;3955;-53
2022/05/02 01:44:20;;;;;;;;;;;;;;;;;;1035199;28;4263;-53
2022/05/02 01:44:50;;;;;;;;;;;;;;;;;;1032668;28;3591;-53
2022/05/02 01:45:21;;;;;;;;;;;;;;;;;;1031794;28;4106;-51
2022/05/02 01:45:51;;;;;;;;;;;;;;;;;;1032023;28;3583;-54
2022/05/02 01:46:21;;;;;;;;;;;;;;;;;;1030230;28;3542;-52
2022/05/02 01:46:52;;;;;;;;;;;;;;;;;;1036575;28;3598;-51
2022/05/02 01:47:22;;;;;;;;;;;;;;;;;;1037256;28;3743;-53
2022/05/02 01:47:54;;;;;;;;;;;;;;;;;;1028120;28;3699;-53
2022/05/02 01:48:24;;;;;;;;;;;;;;;;;;1028591;28;3695;-53
2022/05/02 01:48:55;;;;;;;;;;;;;;;;;;1026308;28;4137;-51
2022/05/02 01:49:26;;;;;;;;;;;;;;;;;;1030012;28;3701;-53
2022/05/02 01:49:56;;;;;;;;;;;;;;;;;;1036555;28;3591;-50
2022/05/02 01:50:26;;;;;;;;;;;;;;;;;;1035491;28;3695;-54
2022/05/02 01:50:57;;;;;;;;;;;;;;;;;;1035978;28;3612;-50
2022/05/02 01:51:27;;;;;;;;;;;;;;;;;;1036339;28;3459;-52
2022/05/02 01:51:58;;;;;;;;;;;;;;;;;;1035473;28;3779;-51
2022/05/02 01:52:28;;;;;;;;;;;;;;;;;;1036877;28;3721;-51
2022/05/02 01:52:58;;;;;;;;;;;;;;;;;;1035254;28;3576;-51
2022/05/02 01:53:28;;;;;;;;;;;;;;;;;;1035535;28;5058;-50
2022/05/02 01:53:59;;;;;;;;;;;;;;;;;;1035797;28;4023;-50
2022/05/02 01:54:29;;;;;;;;;;;;;;;;;;1036728;28;3429;-54
2022/05/02 01:55:00;;;;;;;;;;;;;;;;;;1035455;28;3478;-52
2022/05/02 01:55:30;;;;;;;;;;;;;;;;;;1035655;28;3708;-52
2022/05/02 01:56:01;;;;;;;;;;;;;;;;;;1036111;28;3715;-52
2022/05/02 01:56:31;;;;;;;;;;;;;;;;;;1035429;28;4229;-49
2022/05/02 01:57:01;;;;;;;;;;;;;;;;;;1033932;28;4902;-52
2022/05/02 01:57:32;;;;;;;;;;;;;;;;;;1036403;28;3477;-50
2022/05/02 01:58:02;;;;;;;;;;;;;;;;;;1031599;28;4805;-49
2022/05/02 01:58:32;;;;;;;;;;;;;;;;;;1032353;28;3681;-54
2022/05/02 01:59:03;;;;;;;;;;;;;;;;;;1030175;28;3572;-53
2022/05/02 01:59:34;;;;;;;;;;;;;;;;;;1031688;28;3524;-52
2022/05/02 02:00:04;;;;;;;;;;;;;;;;;;1035549;28;3480;-55
2022/05/02 02:00:34;;;;;;;;;;;;;;;;;;1036421;28;3671;-53
2022/05/02 02:01:05;;;;;;;;;;;;;;;;;;1034203;28;3792;-56
2022/05/02 02:01:35;;;;;;;;;;;;;;;;;;1036319;28;3611;-51
2022/05/02 02:02:05;;;;;;;;;;;;;;;;;;1035296;28;3745;-50
2022/05/02 02:02:36;;;;;;;;;;;;;;;;;;1035695;28;3859;-52
2022/05/02 02:03:11;;;;;;;;;;;;;;;;;;1032698;28;6126;-54
2022/05/02 02:03:41;;;;;;;;;;;;;;;;;;1036791;28;3582;-50
2022/05/02 02:05:51;;;;;;;;;;;;;;;;;;1030815;28;4622;-55
2022/05/02 02:06:24;;;;;;;;;;;;;;;;;;1032393;28;3698;-52
2022/05/02 02:06:54;;;;;;;;;;;;;;;;;;1030785;28;3879;-54
2022/05/02 02:07:25;;;;;;;;;;;;;;;;;;1031325;28;4021;-51
2022/05/02 02:07:56;;;;;;;;;;;;;;;;;;1034425;28;3806;-52
2022/05/02 02:08:27;;;;;;;;;;;;;;;;;;1035681;28;4160;-52
2022/05/02 02:08:58;;;;;;;;;;;;;;;;;;1035784;28;3569;-53
2022/05/02 02:09:28;;;;;;;;;;;;;;;;;;1034913;28;4112;-51
2022/05/02 02:09:58;;;;;;;;;;;;;;;;;;1036693;28;3580;-50
2022/05/02 02:10:28;;;;;;;;;;;;;;;;;;1031734;28;3605;-53
2022/05/02 02:11:03;;;;;;;;;;;;;;;;;;1033000;28;4446;-53
2022/05/02 02:11:33;;;;;;;;;;;;;;;;;;1032110;28;3664;-54
2022/05/02 02:12:04;;;;;;;;;;;;;;;;;;1032400;28;3478;-51
2022/05/02 02:12:34;;;;;;;;;;;;;;;;;;1030580;28;3824;-51
2022/05/02 02:13:05;;;;;;;;;;;;;;;;;;1031978;28;4876;-51
2022/05/02 02:13:36;;;;;;;;;;;;;;;;;;1032790;28;4212;-53
2022/05/02 02:14:06;;;;;;;;;;;;;;;;;;1033476;28;4746;-51
2022/05/02 02:14:37;;;;;;;;;;;;;;;;;;1034401;28;3938;-52
2022/05/02 02:15:07;;;;;;;;;;;;;;;;;;1034920;28;3647;-53
2022/05/02 02:15:38;;;;;;;;;;;;;;;;;;1036447;28;3600;-55
2022/05/02 02:16:13;;;;;;;;;;;;;;;;;;1035941;28;4333;-51
2022/05/02 02:16:44;;;;;;;;;;;;;;;;;;1037034;28;3831;-50
2022/05/02 02:17:15;;;;;;;;;;;;;;;;;;1027021;28;3971;-49
2022/05/02 02:17:45;;;;;;;;;;;;;;;;;;1028396;28;4041;-52
2022/05/02 02:18:16;;;;;;;;;;;;;;;;;;1028870;28;3733;-55
2022/05/02 02:18:46;;;;;;;;;;;;;;;;;;1027445;28;3739;-52
2022/05/02 02:19:16;;;;;;;;;;;;;;;;;;1035347;28;3808;-52
2022/05/02 02:19:47;;;;;;;;;;;;;;;;;;1034546;28;5016;-54
2022/05/02 02:20:17;;;;;;;;;;;;;;;;;;1036480;28;3606;-53
2022/05/02 02:20:48;;;;;;;;;;;;;;;;;;1035581;28;4870;-52
2022/05/02 02:21:18;;;;;;;;;;;;;;;;;;1037744;28;4155;-53
2022/05/02 02:21:49;;;;;;;;;;;;;;;;;;1035862;28;3784;-52
2022/05/02 02:22:19;;;;;;;;;;;;;;;;;;1035688;28;3789;-55
2022/05/02 02:22:49;;;;;;;;;;;;;;;;;;1033532;28;4204;-50
2022/05/02 02:23:22;;;;;;;;;;;;;;;;;;1036139;28;3456;-51
2022/05/02 02:23:52;;;;;;;;;;;;;;;;;;1035156;28;3619;-51
2022/05/02 02:24:23;;;;;;;;;;;;;;;;;;1035246;28;3586;-52
2022/05/02 02:24:53;;;;;;;;;;;;;;;;;;1034773;28;3569;-51
2022/05/02 02:25:37;;;;;;;;;;;;;;;;;;1035868;28;3496;-55
2022/05/02 02:26:07;;;;;;;;;;;;;;;;;;1039358;28;3509;-52
2022/05/02 02:26:38;;;;;;;;;;;;;;;;;;1040471;28;3630;-50
2022/05/02 02:27:16;;;;;;;;;;;;;;;;;;1039426;28;3607;-53
2022/05/02 02:27:46;;;;;;;;;;;;;;;;;;1038502;28;4168;-52
2022/05/02 02:28:17;;;;;;;;;;;;;;;;;;1041062;28;3472;-51
2022/05/02 02:28:47;;;;;;;;;;;;;;;;;;1034192;28;3776;-52
2022/05/02 02:29:17;;;;;;;;;;;;;;;;;;1034852;28;3811;-53
2022/05/02 02:29:48;;;;;;;;;;;;;;;;;;1033488;28;4161;-55
2022/05/02 02:30:19;;;;;;;;;;;;;;;;;;1032377;28;4037;-53
2022/05/02 02:30:49;;;;;;;;;;;;;;;;;;1038942;28;3870;-52
2022/05/02 02:31:19;;;;;;;;;;;;;;;;;;1039757;28;4919;-52
2022/05/02 02:31:49;;;;;;;;;;;;;;;;;;1040934;28;3628;-50
2022/05/02 02:32:20;;;;;;;;;;;;;;;;;;1037918;28;5802;-50
2022/05/02 02:32:50;;;;;;;;;;;;;;;;;;1037805;28;4551;-54
2022/05/02 02:33:20;;;;;;;;;;;;;;;;;;1038722;28;3766;-52
2022/05/02 02:33:51;;;;;;;;;;;;;;;;;;1039135;28;4736;-54
2022/05/02 02:34:21;;;;;;;;;;;;;;;;;;1037630;28;4075;-53
2022/05/02 02:34:51;;;;;;;;;;;;;;;;;;1039023;28;3401;-49
2022/05/02 02:35:21;;;;;;;;;;;;;;;;;;1037786;28;4161;-53
2022/05/02 02:35:55;;;;;;;;;;;;;;;;;;1038086;28;3465;-53
2022/05/02 02:36:25;;;;;;;;;;;;;;;;;;1037846;28;3646;-56
2022/05/02 02:36:56;;;;;;;;;;;;;;;;;;1032209;28;3418;-51
2022/05/02 02:37:26;;;;;;;;;;;;;;;;;;1033273;28;3487;-54
2022/05/02 02:37:56;;;;;;;;;;;;;;;;;;1033410;28;3580;-51
2022/05/02 02:38:27;;;;;;;;;;;;;;;;;;1035739;28;3578;-49
2022/05/02 02:38:57;;;;;;;;;;;;;;;;;;1039904;28;3526;-52
2022/05/02 02:39:27;;;;;;;;;;;;;;;;;;1040369;28;3619;-53
2022/05/02 02:39:57;;;;;;;;;;;;;;;;;;1039512;28;3634;-53
2022/05/02 02:40:28;;;;;;;;;;;;;;;;;;1040784;28;3646;-53
2022/05/02 02:40:58;;;;;;;;;;;;;;;;;;1041258;28;3453;-51
2022/05/02 02:41:29;;;;;;;;;;;;;;;;;;1040693;28;3664;-52
2022/05/02 02:42:00;;;;;;;;;;;;;;;;;;1039846;28;3818;-53
2022/05/02 02:42:30;;;;;;;;;;;;;;;;;;1039878;28;3898;-54
2022/05/02 02:43:00;;;;;;;;;;;;;;;;;;1040221;28;3638;-52
2022/05/02 02:43:31;;;;;;;;;;;;;;;;;;1041373;28;3602;-54
2022/05/02 02:44:01;;;;;;;;;;;;;;;;;;1040104;28;3891;-51
2022/05/02 02:44:31;;;;;;;;;;;;;;;;;;1040041;28;3834;-55
2022/05/02 02:45:02;;;;;;;;;;;;;;;;;;1039113;28;3663;-50
2022/05/02 02:45:32;;;;;;;;;;;;;;;;;;1040821;28;3957;-54
2022/05/02 02:46:02;;;;;;;;;;;;;;;;;;1038064;28;4083;-53
2022/05/02 02:46:33;;;;;;;;;;;;;;;;;;1039487;28;4075;-52
2022/05/02 02:47:03;;;;;;;;;;;;;;;;;;1040245;28;3944;-54
2022/05/02 02:47:33;;;;;;;;;;;;;;;;;;1039976;28;3570;-55
2022/05/02 02:48:04;;;;;;;;;;;;;;;;;;1038732;28;3813;-54
2022/05/02 02:48:34;;;;;;;;;;;;;;;;;;1040212;28;3892;-52
2022/05/02 02:49:05;;;;;;;;;;;;;;;;;;1039924;28;3565;-53
2022/05/02 02:49:35;;;;;;;;;;;;;;;;;;1039913;28;3612;-56
2022/05/02 02:50:06;;;;;;;;;;;;;;;;;;1037120;28;3620;-53
2022/05/02 02:50:37;;;;;;;;;;;;;;;;;;1032837;28;3947;-54
2022/05/02 02:51:07;;;;;;;;;;;;;;;;;;1032362;28;3853;-50
2022/05/02 02:51:37;;;;;;;;;;;;;;;;;;1032880;28;3519;-55
2022/05/02 02:52:08;;;;;;;;;;;;;;;;;;1037548;28;4397;-52
2022/05/02 02:52:38;;;;;;;;;;;;;;;;;;1039987;28;3964;-53
2022/05/02 02:53:08;;;;;;;;;;;;;;;;;;1041165;28;3688;-50
2022/05/02 02:53:39;;;;;;;;;;;;;;;;;;1039538;28;3688;-52
2022/05/02 02:54:09;;;;;;;;;;;;;;;;;;1039037;28;3636;-50
2022/05/02 02:54:39;;;;;;;;;;;;;;;;;;1040547;28;3633;-53
2022/05/02 02:55:09;;;;;;;;;;;;;;;;;;1039734;28;3660;-54
2022/05/02 02:55:40;;;;;;;;;;;;;;;;;;1039578;28;3859;-51
2022/05/02 02:56:10;;;;;;;;;;;;;;;;;;1040158;28;3713;-51
2022/05/02 02:56:40;;;;;;;;;;;;;;;;;;1040048;28;3678;-53
2022/05/02 02:57:11;;;;;;;;;;;;;;;;;;1039166;28;3485;-54
2022/05/02 02:57:41;;;;;;;;;;;;;;;;;;1040659;28;3734;-51
2022/05/02 02:58:11;;;;;;;;;;;;;;;;;;1039789;28;3504;-49
2022/05/02 02:58:42;;;;;;;;;;;;;;;;;;1040080;28;3618;-51
2022/05/02 02:59:12;;;;;;;;;;;;;;;;;;1039049;28;3717;-54
2022/05/02 02:59:43;;;;;;;;;;;;;;;;;;1040823;28;3905;-51
2022/05/02 03:00:14;;;;;;;;;;;;;;;;;;1039471;28;4875;-56
2022/05/02 03:00:44;;;;;;;;;;;;;;;;;;1035858;28;3702;-51
2022/05/02 03:01:14;;;;;;;;;;;;;;;;;;1033019;28;3534;-51
2022/05/02 03:01:45;;;;;;;;;;;;;;;;;;1031100;28;4007;-53
2022/05/02 03:02:15;;;;;;;;;;;;;;;;;;1032393;28;4269;-51
2022/05/02 03:02:45;;;;;;;;;;;;;;;;;;1035686;28;4783;-49
2022/05/02 03:03:16;;;;;;;;;;;;;;;;;;1039937;28;3732;-52
2022/05/02 03:03:46;;;;;;;;;;;;;;;;;;1040628;28;3845;-51
2022/05/02 03:06:04;;;;;;;;;;;;;;;;;;1039690;28;3700;-53
2022/05/02 03:06:35;;;;;;;;;;;;;;;;;;1035926;28;3759;-49
2022/05/02 03:07:05;;;;;;;;;;;;;;;;;;1035428;28;4037;-54
2022/05/02 03:07:35;;;;;;;;;;;;;;;;;;1032848;28;3520;-55
2022/05/02 03:08:07;;;;;;;;;;;;;;;;;;1034320;28;4158;-52
2022/05/02 03:08:40;;;;;;;;;;;;;;;;;;1037033;28;3746;-54
2022/05/02 03:09:10;;;;;;;;;;;;;;;;;;1036977;28;3925;-51
2022/05/02 03:09:40;;;;;;;;;;;;;;;;;;1041722;28;3571;-52
2022/05/02 03:10:10;;;;;;;;;;;;;;;;;;1038861;28;3677;-52
2022/05/02 03:10:41;;;;;;;;;;;;;;;;;;1039865;28;4095;-52
2022/05/02 03:11:11;;;;;;;;;;;;;;;;;;1039779;28;3538;-54
2022/05/02 03:11:42;;;;;;;;;;;;;;;;;;1040693;28;3864;-52
2022/05/02 03:12:12;;;;;;;;;;;;;;;;;;1039266;28;3525;-53
2022/05/02 03:12:42;;;;;;;;;;;;;;;;;;1040641;28;5965;-53
2022/05/02 03:13:13;;;;;;;;;;;;;;;;;;1039427;28;4050;-53
2022/05/02 03:13:43;;;;;;;;;;;;;;;;;;1039207;28;3738;-54
2022/05/02 03:14:13;;;;;;;;;;;;;;;;;;1039404;28;5641;-54
2022/05/02 03:14:43;;;;;;;;;;;;;;;;;;1037952;28;3690;-52
2022/05/02 03:15:14;;;;;;;;;;;;;;;;;;1039870;28;3811;-52
2022/05/02 03:15:45;;;;;;;;;;;;;;;;;;1035206;28;3846;-49
2022/05/02 03:16:15;;;;;;;;;;;;;;;;;;1033729;28;4602;-55
2022/05/02 03:16:46;;;;;;;;;;;;;;;;;;1028416;28;3733;-52
2022/05/02 03:17:16;;;;;;;;;;;;;;;;;;1029211;28;4155;-53
2022/05/02 03:17:46;;;;;;;;;;;;;;;;;;1033548;28;3535;-56
2022/05/02 03:18:17;;;;;;;;;;;;;;;;;;1036240;28;3654;-51
2022/05/02 03:18:47;;;;;;;;;;;;;;;;;;1041303;28;3674;-53
2022/05/02 03:19:18;;;;;;;;;;;;;;;;;;1039608;28;3573;-52
2022/05/02 03:19:48;;;;;;;;;;;;;;;;;;1040856;28;3607;-53
2022/05/02 03:20:18;;;;;;;;;;;;;;;;;;1039296;28;3825;-56
2022/05/02 03:20:48;;;;;;;;;;;;;;;;;;1040290;28;3696;-51
2022/05/02 03:21:19;;;;;;;;;;;;;;;;;;1039055;28;5948;-51
2022/05/02 03:21:49;;;;;;;;;;;;;;;;;;1040156;28;6026;-51
2022/05/02 03:22:19;;;;;;;;;;;;;;;;;;1039798;28;3861;-50
2022/05/02 03:22:50;;;;;;;;;;;;;;;;;;1040539;28;3504;-52
2022/05/02 03:23:20;;;;;;;;;;;;;;;;;;1039988;28;3573;-51
2022/05/02 03:23:51;;;;;;;;;;;;;;;;;;1040885;28;3860;-53
2022/05/02 03:24:21;;;;;;;;;;;;;;;;;;1040015;28;3693;-51
2022/05/02 03:24:52;;;;;;;;;;;;;;;;;;1034615;28;3569;-52
2022/05/02 03:25:23;;;;;;;;;;;;;;;;;;1035802;28;3568;-53
2022/05/02 03:26:13;;;;;;;;;;;;;;;;;;1035722;28;3591;-54
2022/05/02 03:26:50;;;;;;;;;;;;;;;;;;1039549;28;3559;-51
2022/05/02 03:27:20;;;;;;;;;;;;;;;;;;1039614;28;3595;-53
2022/05/02 03:27:51;;;;;;;;;;;;;;;;;;1033345;28;3451;-54
2022/05/02 03:28:21;;;;;;;;;;;;;;;;;;1035006;28;3627;-51
2022/05/02 03:28:51;;;;;;;;;;;;;;;;;;1036375;28;4063;-51
2022/05/02 03:29:21;;;;;;;;;;;;;;;;;;1034491;28;3793;-50
2022/05/02 03:29:52;;;;;;;;;;;;;;;;;;1039389;28;4440;-52
2022/05/02 03:30:23;;;;;;;;;;;;;;;;;;1038864;28;3720;-51
2022/05/02 03:30:54;;;;;;;;;;;;;;;;;;1031112;28;5209;-54
2022/05/02 03:31:25;;;;;;;;;;;;;;;;;;1030994;28;3585;-49
2022/05/02 03:31:55;;;;;;;;;;;;;;;;;;1032352;28;3798;-51
2022/05/02 03:32:25;;;;;;;;;;;;;;;;;;1032668;28;4230;-51
2022/05/02 03:32:55;;;;;;;;;;;;;;;;;;1037967;28;3591;-53
2022/05/02 03:33:26;;;;;;;;;;;;;;;;;;1038474;28;3836;-52
2022/05/02 03:33:56;;;;;;;;;;;;;;;;;;1040335;28;4292;-50
2022/05/02 03:34:26;;;;;;;;;;;;;;;;;;1037559;28;3949;-53
2022/05/02 03:34:57;;;;;;;;;;;;;;;;;;1037037;28;3481;-50
2022/05/02 03:35:27;;;;;;;;;;;;;;;;;;1036656;28;3457;-51
2022/05/02 03:35:58;;;;;;;;;;;;;;;;;;1036755;28;3798;-51
2022/05/02 03:36:28;;;;;;;;;;;;;;;;;;1039032;28;3642;-51
2022/05/02 03:36:58;;;;;;;;;;;;;;;;;;1040667;28;3698;-50
2022/05/02 03:37:28;;;;;;;;;;;;;;;;;;1039253;28;3576;-50
2022/05/02 03:37:59;;;;;;;;;;;;;;;;;;1038464;28;6092;-53
2022/05/02 03:38:30;;;;;;;;;;;;;;;;;;1038750;28;3943;-54
2022/05/02 03:39:00;;;;;;;;;;;;;;;;;;1039835;28;3589;-53
2022/05/02 03:39:31;;;;;;;;;;;;;;;;;;1038943;28;3766;-50
2022/05/02 03:40:01;;;;;;;;;;;;;;;;;;1040260;28;3550;-53